Time;durP1;ratioP1;P1;durP2;ratioP2;P2;SDS_P1;SDS_P2;PMS_P1;PMS_P2;Temp;Humidity;BMP_temperature;BMP_pressure;BME280_temperature;BME280_humidity;BME280_pressure;Samples;Min_cycle;Max_cycle;Signal;HPM_P1;HPM_P2
2022/05/28 00:02:45;;;;;;;5.60;1.02;;;17.40;60.60;;;;;;6213320;28;20050;-82
2022/05/28 00:05:46;;;;;;;5.45;0.82;;;17.40;60.60;;;;;;6213316;28;20042;-83
2022/05/28 00:08:50;;;;;;;4.22;1.05;;;17.30;61.00;;;;;;6210891;28;20533;-83
2022/05/28 00:11:52;;;;;;;2.42;0.77;;;17.20;61.20;;;;;;6211666;28;20046;-83
2022/05/28 00:14:54;;;;;;;8.35;1.13;;;17.20;61.50;;;;;;6210061;28;20046;-83
2022/05/28 00:17:56;;;;;;;5.57;1.27;;;17.10;61.40;;;;;;6211614;28;20058;-84
2022/05/28 00:20:58;;;;;;;7.55;0.85;;;17.00;61.40;;;;;;6210688;28;20073;-83
2022/05/28 00:24:01;;;;;;;11.43;1.60;;;17.00;61.70;;;;;;6212070;28;20092;-84
2022/05/28 00:27:03;;;;;;;3.95;0.82;;;17.00;61.60;;;;;;6210799;28;20125;-82
2022/05/28 00:30:07;;;;;;;5.45;0.80;;;16.90;62.00;;;;;;6211276;28;20054;-82
2022/05/28 00:33:09;;;;;;;4.53;0.77;;;16.90;62.20;;;;;;6214712;28;20469;-83
2022/05/28 00:36:12;;;;;;;4.10;1.48;;;16.80;62.20;;;;;;6205137;28;20072;-84
2022/05/28 00:39:15;;;;;;;4.85;1.20;;;16.80;62.30;;;;;;6210374;28;20043;-83
2022/05/28 00:42:17;;;;;;;5.25;1.20;;;16.70;62.70;;;;;;6229987;23;20038;-85
2022/05/28 00:45:20;;;;;;;6.13;1.10;;;16.70;62.80;;;;;;6249403;28;20049;-84
2022/05/28 00:48:26;;;;;;;10.50;1.98;;;16.70;63.00;;;;;;6241713;28;20071;-84
2022/05/28 00:51:32;;;;;;;15.23;1.83;;;16.60;63.10;;;;;;6269570;28;20053;-85
2022/05/28 00:54:38;;;;;;;5.82;0.93;;;16.60;63.40;;;;;;6253808;28;20130;-83
2022/05/28 00:57:41;;;;;;;9.27;0.90;;;16.50;63.50;;;;;;6255830;28;20054;-86
2022/05/28 01:00:44;;;;;;;5.95;0.85;;;16.40;63.80;;;;;;6250035;28;20123;-84
2022/05/28 01:04:00;;;;;;;7.43;0.98;;;16.30;64.40;;;;;;6230793;28;20061;-84
2022/05/28 01:07:10;;;;;;;9.93;1.30;;;16.30;64.70;;;;;;6230401;28;20567;-84
2022/05/28 01:10:23;;;;;;;8.20;1.25;;;16.10;65.10;;;;;;6229877;28;20073;-86
2022/05/28 01:13:29;;;;;;;6.40;1.25;;;16.00;65.50;;;;;;6229205;28;20069;-84
2022/05/28 01:16:35;;;;;;;8.52;1.13;;;16.00;66.00;;;;;;6229245;28;20041;-84
2022/05/28 01:19:49;;;;;;;5.65;1.10;;;15.90;66.30;;;;;;6229296;28;20129;-85
2022/05/28 01:23:08;;;;;;;15.88;2.90;;;15.90;66.50;;;;;;6227887;28;20046;-84
2022/05/28 01:26:18;;;;;;;3.85;0.55;;;15.90;66.50;;;;;;6229210;28;20046;-84
2022/05/28 01:29:24;;;;;;;7.50;0.82;;;15.80;66.40;;;;;;6229731;28;20054;-84
2022/05/28 01:32:27;;;;;;;6.55;0.70;;;15.80;66.60;;;;;;6229972;28;20088;-84
2022/05/28 01:35:31;;;;;;;5.35;1.15;;;15.70;66.70;;;;;;6229232;28;20121;-85
2022/05/28 01:38:34;;;;;;;4.18;1.02;;;15.60;67.00;;;;;;6229800;28;20041;-85
2022/05/28 01:41:37;;;;;;;6.93;0.80;;;15.70;66.90;;;;;;6229947;28;20100;-83
2022/05/28 01:44:44;;;;;;;10.65;2.08;;;15.70;66.80;;;;;;6228651;28;20421;-84
2022/05/28 01:47:48;;;;;;;8.70;1.73;;;15.70;67.20;;;;;;6230373;28;20073;-86
2022/05/28 01:50:53;;;;;;;8.35;1.33;;;15.80;67.10;;;;;;6229701;28;20052;-85
2022/05/28 01:57:15;;;;;;;12.68;1.17;;;15.70;66.60;;;;;;6229558;28;20041;-84
2022/05/28 02:00:19;;;;;;;2.40;0.90;;;15.60;66.40;;;;;;6230846;28;20060;-83
2022/05/28 02:03:21;;;;;;;5.95;1.13;;;15.60;66.50;;;;;;6230544;28;20046;-85
2022/05/28 02:06:24;;;;;;;6.60;1.13;;;15.60;66.50;;;;;;6230525;28;20105;-85
2022/05/28 02:09:30;;;;;;;4.88;1.30;;;15.70;66.70;;;;;;6230728;28;20054;-85
2022/05/28 02:12:33;;;;;;;11.75;1.27;;;15.70;66.20;;;;;;6230898;28;20181;-85
2022/05/28 02:15:44;;;;;;;6.35;1.02;;;15.80;66.60;;;;;;6231244;28;20042;-84
2022/05/28 02:18:51;;;;;;;6.00;0.93;;;15.80;67.30;;;;;;6230692;28;20497;-84
2022/05/28 02:22:02;;;;;;;5.70;1.27;;;15.80;66.40;;;;;;6230032;28;20046;-84
2022/05/28 02:25:10;;;;;;;7.25;1.00;;;15.70;66.80;;;;;;6229795;28;20061;-84
2022/05/28 02:28:13;;;;;;;4.25;0.88;;;15.90;67.20;;;;;;6229471;28;20057;-84
2022/05/28 02:31:19;;;;;;;6.93;0.80;;;15.90;66.70;;;;;;6229572;28;20421;-85
2022/05/28 02:34:21;;;;;;;5.25;0.90;;;15.80;66.60;;;;;;6228793;28;20085;-84
2022/05/28 02:37:25;;;;;;;4.60;1.10;;;15.70;66.90;;;;;;6230791;28;20046;-84
2022/05/28 02:40:27;;;;;;;9.30;0.80;;;15.70;67.10;;;;;;6229323;28;20129;-84
2022/05/28 02:43:31;;;;;;;2.50;0.80;;;15.60;67.40;;;;;;6230018;28;20128;-83
2022/05/28 02:46:35;;;;;;;7.50;1.10;;;15.60;67.50;;;;;;6229797;28;20042;-83
2022/05/28 02:49:37;;;;;;;5.57;1.05;;;15.60;67.70;;;;;;6231362;28;20068;-84
2022/05/28 02:52:39;;;;;;;6.75;1.05;;;15.60;67.30;;;;;;6230157;28;20060;-84
2022/05/28 02:55:41;;;;;;;4.40;0.85;;;15.50;67.10;;;;;;6230680;28;20038;-85
2022/05/28 02:58:43;;;;;;;5.70;0.80;;;15.40;66.30;;;;;;6229843;28;20103;-85
2022/05/28 03:01:53;;;;;;;8.88;1.35;;;15.40;64.30;;;;;;6231732;28;20050;-85
2022/05/28 03:04:55;;;;;;;4.85;0.80;;;15.20;63.80;;;;;;6224934;28;20053;-85
2022/05/28 03:07:57;;;;;;;6.53;1.38;;;15.20;63.80;;;;;;6229203;28;20128;-84
2022/05/28 03:10:59;;;;;;;6.53;0.65;;;15.00;63.80;;;;;;6230519;28;20156;-85
2022/05/28 03:14:01;;;;;;;7.05;0.70;;;14.90;64.10;;;;;;6229553;28;20485;-83
2022/05/28 03:17:05;;;;;;;7.85;0.70;;;14.90;64.10;;;;;;6229826;28;20468;-84
2022/05/28 03:20:08;;;;;;;4.65;0.77;;;14.80;63.90;;;;;;6229630;28;20127;-84
2022/05/28 03:23:10;;;;;;;4.80;0.93;;;14.80;64.10;;;;;;6232943;28;20571;-85
2022/05/28 03:26:13;;;;;;;8.95;1.00;;;14.70;64.60;;;;;;6239641;28;20056;-84
2022/05/28 03:29:15;;;;;;;8.57;1.48;;;14.70;64.70;;;;;;6229213;28;20787;-83
2022/05/28 03:32:18;;;;;;;6.28;1.10;;;14.60;64.70;;;;;;6227278;28;20053;-83
2022/05/28 03:35:20;;;;;;;7.85;0.80;;;14.50;65.00;;;;;;6225667;28;20172;-83
2022/05/28 03:38:22;;;;;;;4.03;0.43;;;14.40;65.50;;;;;;6227344;28;20064;-83
2022/05/28 03:41:25;;;;;;;5.80;0.90;;;14.30;65.60;;;;;;6228415;28;20143;-82
2022/05/28 03:44:27;;;;;;;4.22;0.52;;;14.30;65.90;;;;;;6226571;28;20053;-83
2022/05/28 03:47:31;;;;;;;5.75;0.77;;;14.20;66.20;;;;;;6226353;28;20517;-84
2022/05/28 03:50:33;;;;;;;2.75;0.52;;;14.30;66.50;;;;;;6226124;28;20048;-83
2022/05/28 03:53:35;;;;;;;3.13;0.63;;;14.20;66.40;;;;;;6227077;28;20053;-83
2022/05/28 03:56:39;;;;;;;7.60;1.00;;;14.30;66.60;;;;;;6227719;28;20070;-82
2022/05/28 03:59:41;;;;;;;10.25;1.58;;;14.30;66.80;;;;;;6227044;28;20049;-83
2022/05/28 04:02:44;;;;;;;3.65;0.65;;;14.30;67.50;;;;;;6227513;28;20422;-83
2022/05/28 04:05:46;;;;;;;2.58;0.50;;;14.20;68.70;;;;;;6228529;28;20042;-84
2022/05/28 04:08:48;;;;;;;4.68;0.60;;;14.20;69.70;;;;;;6226480;28;20521;-83
2022/05/28 04:11:49;;;;;;;2.90;0.60;;;14.10;70.40;;;;;;6226922;28;20049;-82
2022/05/28 04:14:51;;;;;;;7.10;0.77;;;14.00;71.10;;;;;;6226235;28;20739;-82
2022/05/28 04:17:54;;;;;;;8.65;1.00;;;14.00;71.70;;;;;;6226501;28;20530;-83
2022/05/28 04:20:56;;;;;;;5.75;0.98;;;14.10;71.80;;;;;;6225981;28;20042;-83
2022/05/28 04:23:58;;;;;;;3.85;0.65;;;14.20;71.80;;;;;;6225072;28;20042;-83
2022/05/28 04:27:00;;;;;;;3.78;0.60;;;14.30;72.60;;;;;;6226165;28;20046;-82
2022/05/28 04:30:03;;;;;;;3.55;0.82;;;14.50;72.80;;;;;;6226582;28;20125;-83
2022/05/28 04:33:06;;;;;;;4.75;0.60;;;14.70;73.20;;;;;;6225316;28;20152;-83
2022/05/28 04:36:08;;;;;;;11.45;1.10;;;15.20;72.30;;;;;;6227792;28;20042;-83
2022/05/28 04:39:10;;;;;;;5.28;0.77;;;16.10;70.40;;;;;;6225361;28;20173;-83
2022/05/28 04:42:12;;;;;;;6.00;0.70;;;17.70;67.40;;;;;;6226817;28;20077;-82
2022/05/28 04:45:14;;;;;;;5.53;1.33;;;19.50;62.30;;;;;;6228932;28;20054;-83
2022/05/28 04:48:17;;;;;;;27.85;1.35;;;19.40;61.40;;;;;;6230868;28;20132;-83
2022/05/28 04:51:18;;;;;;;4.57;0.60;;;19.40;60.80;;;;;;6230361;28;20181;-82
2022/05/28 04:54:20;;;;;;;3.85;0.60;;;19.90;60.40;;;;;;6231627;28;20056;-83
2022/05/28 04:57:22;;;;;;;3.13;0.90;;;20.60;59.40;;;;;;6230951;28;20502;-83
2022/05/28 05:00:26;;;;;;;4.63;0.77;;;21.30;58.10;;;;;;6230288;28;20045;-83
2022/05/28 05:03:29;;;;;;;11.43;1.52;;;21.10;57.50;;;;;;6230225;28;20056;-83
2022/05/28 05:06:31;;;;;;;2.33;0.60;;;20.60;57.40;;;;;;6231395;28;20045;-83
2022/05/28 05:09:33;;;;;;;5.95;0.95;;;20.60;57.40;;;;;;6230944;28;20077;-83
2022/05/28 05:12:35;;;;;;;5.82;0.75;;;20.80;57.70;;;;;;6230202;28;20261;-84
2022/05/28 05:15:39;;;;;;;6.43;1.10;;;21.10;58.00;;;;;;6229362;28;20129;-83
2022/05/28 05:18:42;;;;;;;6.22;0.70;;;22.60;55.70;;;;;;6229526;28;20128;-83
2022/05/28 05:21:44;;;;;;;3.95;0.98;;;23.70;52.50;;;;;;6230317;28;20081;-84
2022/05/28 05:24:46;;;;;;;7.47;1.23;;;24.00;51.20;;;;;;6229604;28;20056;-85
2022/05/28 05:27:48;;;;;;;10.38;2.90;;;24.60;48.70;;;;;;6228999;28;20402;-83
2022/05/28 05:30:50;;;;;;;5.13;0.85;;;26.20;44.60;;;;;;6228620;28;20081;-83
2022/05/28 05:33:53;;;;;;;7.03;1.17;;;28.40;40.40;;;;;;6230108;28;20113;-84
2022/05/28 05:36:55;;;;;;;5.80;1.20;;;30.40;36.00;;;;;;6228967;28;20045;-84
2022/05/28 05:39:56;;;;;;;2.85;0.70;;;31.80;33.60;;;;;;6228206;28;20370;-84
2022/05/28 05:42:58;;;;;;;5.70;1.13;;;33.40;31.30;;;;;;6228704;28;20034;-84
2022/05/28 05:46:02;;;;;;;6.60;1.70;;;33.70;30.10;;;;;;6228179;28;20054;-83
2022/05/28 05:49:06;;;;;;;4.15;0.90;;;34.80;29.40;;;;;;6228735;28;20505;-84
2022/05/28 05:52:08;;;;;;;5.95;1.85;;;35.70;28.90;;;;;;6229084;28;20042;-82
2022/05/28 05:55:10;;;;;;;5.82;1.17;;;35.80;28.00;;;;;;6229876;28;20044;-84
2022/05/28 05:58:12;;;;;;;3.83;0.80;;;36.20;27.80;;;;;;6227521;28;20041;-84
2022/05/28 06:01:14;;;;;;;5.85;0.80;;;37.00;26.90;;;;;;6229159;28;20050;-85
2022/05/28 06:04:17;;;;;;;3.35;0.75;;;38.00;26.10;;;;;;6230475;28;20049;-84
2022/05/28 06:07:19;;;;;;;9.38;1.50;;;38.60;25.60;;;;;;6230684;28;20049;-84
2022/05/28 06:10:21;;;;;;;4.35;0.73;;;38.70;25.20;;;;;;6230961;28;20067;-85
2022/05/28 06:13:23;;;;;;;4.60;0.70;;;38.90;25.10;;;;;;6230704;28;20045;-85
2022/05/28 06:16:24;;;;;;;3.40;0.70;;;38.80;24.60;;;;;;6230511;28;20113;-84
2022/05/28 06:19:28;;;;;;;5.88;0.98;;;38.80;24.40;;;;;;6230286;28;20100;-85
2022/05/28 06:22:29;;;;;;;5.30;0.85;;;39.00;24.20;;;;;;6229574;28;20046;-84
2022/05/28 06:25:31;;;;;;;4.47;0.82;;;39.20;24.10;;;;;;6229158;28;20056;-84
2022/05/28 06:28:33;;;;;;;7.97;1.38;;;39.10;24.30;;;;;;6228261;28;20124;-84
2022/05/28 06:31:35;;;;;;;8.65;0.90;;;38.50;24.50;;;;;;6230409;28;20038;-84
2022/05/28 06:34:38;;;;;;;3.58;0.95;;;38.00;24.60;;;;;;6230005;28;20049;-84
2022/05/28 06:37:40;;;;;;;4.57;0.90;;;37.70;24.60;;;;;;6230731;28;20111;-84
2022/05/28 06:40:42;;;;;;;6.15;0.68;;;37.10;24.70;;;;;;6230711;28;20509;-84
2022/05/28 06:43:43;;;;;;;4.18;0.75;;;36.90;24.90;;;;;;6233093;28;20125;-84
2022/05/28 06:46:45;;;;;;;3.97;1.05;;;37.30;25.00;;;;;;6229430;28;20046;-83
2022/05/28 06:51:01;;;;;;;2.13;0.47;;;37.60;24.60;;;;;;6233152;28;20140;-83
2022/05/28 06:53:10;;;;;;;5.95;1.15;;;37.90;24.50;;;;;;6234515;28;20052;-84
2022/05/28 06:56:13;;;;;;;6.22;1.05;;;38.10;24.70;;;;;;6237407;28;20052;-83
2022/05/28 06:59:15;;;;;;;5.07;1.10;;;38.50;24.20;;;;;;6238063;28;20450;-83
2022/05/28 07:02:17;;;;;;;7.15;1.30;;;39.10;23.80;;;;;;6231090;28;20049;-83
2022/05/28 07:05:20;;;;;;;4.32;0.98;;;39.50;23.70;;;;;;6231448;28;20073;-83
2022/05/28 07:08:22;;;;;;;2.75;0.50;;;39.50;23.60;;;;;;6229527;28;20072;-83
2022/05/28 07:11:24;;;;;;;6.63;1.20;;;39.10;23.50;;;;;;6230039;28;20117;-84
2022/05/28 07:14:25;;;;;;;8.95;1.25;;;39.00;23.90;;;;;;6232166;28;20057;-85
2022/05/28 07:17:27;;;;;;;6.03;0.90;;;39.30;23.20;;;;;;6230799;28;20089;-83
2022/05/28 07:20:31;;;;;;;2.08;0.47;;;38.90;23.40;;;;;;6234168;28;20128;-83
2022/05/28 07:23:33;;;;;;;4.70;1.35;;;38.10;23.60;;;;;;6200727;28;20429;-84
2022/05/28 07:26:35;;;;;;;4.53;0.75;;;38.00;23.90;;;;;;6215899;28;20604;-84
2022/05/28 07:29:41;;;;;;;3.75;0.73;;;37.80;23.90;;;;;;6228518;28;20604;-88
2022/05/28 07:32:43;;;;;;;9.07;1.27;;;36.90;24.30;;;;;;6227275;28;20460;-86
2022/05/28 07:35:47;;;;;;;3.58;0.52;;;34.30;25.40;;;;;;6225012;28;20125;-86
2022/05/28 07:38:49;;;;;;;6.53;0.57;;;31.80;26.70;;;;;;6226684;28;20046;-86
2022/05/28 07:41:52;;;;;;;4.03;0.90;;;29.80;28.10;;;;;;6242550;28;20049;-85
2022/05/28 07:45:09;;;;;;;3.28;0.60;;;28.30;29.20;;;;;;6242818;28;20341;-85
2022/05/28 07:48:13;;;;;;;4.25;0.63;;;27.20;30.00;;;;;;6243717;28;20111;-85
2022/05/28 07:51:17;;;;;;;4.85;0.73;;;26.30;30.80;;;;;;6238409;28;20049;-85
2022/05/28 07:54:19;;;;;;;2.75;0.45;;;25.50;31.60;;;;;;6237362;28;20076;-86
2022/05/28 07:57:21;;;;;;;3.97;0.50;;;25.00;32.20;;;;;;6230345;28;20050;-86
2022/05/28 08:00:23;;;;;;;7.30;1.05;;;24.70;33.20;;;;;;6225937;28;20076;-85
2022/05/28 08:03:26;;;;;;;4.65;0.90;;;24.50;33.20;;;;;;6228372;28;20113;-85
2022/05/28 08:06:30;;;;;;;3.35;0.77;;;24.30;34.40;;;;;;6225808;28;20054;-85
2022/05/28 08:09:32;;;;;;;5.85;1.50;;;24.40;34.30;;;;;;6224964;28;20103;-85
2022/05/28 08:12:37;;;;;;;4.88;0.60;;;24.40;34.10;;;;;;6223578;28;20052;-85
2022/05/28 08:15:46;;;;;;;3.70;0.90;;;24.30;34.50;;;;;;6233324;28;20042;-87
2022/05/28 08:18:48;;;;;;;4.88;0.68;;;24.20;34.50;;;;;;6231694;28;20038;-85
2022/05/28 08:25:11;;;;;;;5.15;0.73;;;24.10;35.10;;;;;;6240638;28;20046;-86
2022/05/28 08:28:15;;;;;;;3.90;0.85;;;24.20;34.80;;;;;;6252281;28;20077;-85
2022/05/28 08:31:18;;;;;;;2.55;0.50;;;24.30;35.20;;;;;;6247400;28;20049;-86
2022/05/28 08:34:20;;;;;;;4.38;0.77;;;24.30;35.00;;;;;;6249603;28;20061;-85
2022/05/28 08:37:23;;;;;;;7.05;0.73;;;24.20;34.00;;;;;;6235352;28;20052;-85
2022/05/28 08:40:25;;;;;;;3.92;0.65;;;23.80;34.90;;;;;;6229406;28;20505;-84
2022/05/28 08:43:30;;;;;;;3.70;0.55;;;23.80;35.50;;;;;;6229486;28;20169;-84
2022/05/28 08:46:36;;;;;;;3.60;0.65;;;24.10;35.90;;;;;;6234503;28;20465;-86
2022/05/28 08:49:38;;;;;;;1.77;0.75;;;24.10;35.50;;;;;;6210323;28;20129;-86
2022/05/28 08:52:46;;;;;;;4.93;1.23;;;23.90;35.90;;;;;;6209466;28;20046;-84
2022/05/28 08:55:50;;;;;;;3.28;0.60;;;23.80;35.60;;;;;;6219425;28;20046;-85
2022/05/28 08:59:02;;;;;;;8.65;2.17;;;24.00;34.90;;;;;;6229766;28;20049;-85
2022/05/28 09:02:07;;;;;;;4.22;1.25;;;24.30;35.30;;;;;;6231695;28;20065;-86
2022/05/28 09:05:20;;;;;;;4.65;0.60;;;24.50;34.70;;;;;;6232209;28;20180;-86
2022/05/28 09:08:29;;;;;;;5.43;0.95;;;24.50;34.90;;;;;;6229678;28;20109;-84
2022/05/28 09:11:36;;;;;;;4.80;0.80;;;24.60;35.00;;;;;;6232378;28;20057;-85
2022/05/28 09:14:39;;;;;;;8.05;1.40;;;24.60;34.90;;;;;;6233957;28;20046;-85
2022/05/28 09:17:45;;;;;;;6.35;1.60;;;24.70;35.30;;;;;;6233077;28;20050;-85
2022/05/28 09:20:48;;;;;;;8.30;1.77;;;24.90;34.60;;;;;;6232639;28;20129;-84
2022/05/28 09:23:55;;;;;;;4.32;0.93;;;25.30;34.10;;;;;;6232362;28;20050;-86
2022/05/28 09:27:06;;;;;;;3.22;0.80;;;25.20;34.10;;;;;;6232266;28;20144;-85
2022/05/28 09:30:36;;;;;;;4.40;1.45;;;25.00;34.10;;;;;;6220113;28;20492;-86
2022/05/28 09:34:05;;;;;;;2.47;0.40;;;25.10;34.70;;;;;;6229407;28;20131;-87
2022/05/28 09:37:20;;;;;;;3.65;0.60;;;25.20;34.20;;;;;;6232617;28;20181;-86
2022/05/28 09:40:32;;;;;;;6.30;1.30;;;24.90;34.00;;;;;;6233141;28;20539;-85
2022/05/28 09:43:56;;;;;;;5.22;1.38;;;24.40;34.80;;;;;;6227286;28;20042;-87
2022/05/28 09:47:07;;;;;;;7.97;2.83;;;24.10;35.40;;;;;;6226211;28;20053;-86
2022/05/28 09:50:21;;;;;;;3.40;0.73;;;23.90;35.70;;;;;;6226979;28;20507;-86
2022/05/28 09:56:51;;;;;;;4.30;0.65;;;23.20;37.20;;;;;;6221241;28;20513;-84
2022/05/28 10:00:00;;;;;;;2.63;0.63;;;23.30;36.90;;;;;;6230353;28;20065;-84
2022/05/28 10:06:21;;;;;;;5.10;1.05;;;22.90;37.70;;;;;;6200345;28;20334;-86
2022/05/28 10:09:26;;;;;;;6.20;0.95;;;23.10;38.00;;;;;;6215442;28;20053;-87
2022/05/28 10:12:31;;;;;;;3.88;0.68;;;23.10;37.50;;;;;;6233695;28;20117;-87
2022/05/28 10:15:38;;;;;;;5.53;0.90;;;23.20;38.00;;;;;;6226385;28;20056;-87
2022/05/28 10:18:46;;;;;;;5.00;0.70;;;23.20;38.70;;;;;;6227599;28;20169;-86
2022/05/28 10:21:52;;;;;;;2.15;0.60;;;23.20;38.80;;;;;;6232427;28;20127;-88
2022/05/28 10:25:00;;;;;;;4.10;0.65;;;23.30;37.90;;;;;;6232823;28;20053;-87
2022/05/28 10:28:06;;;;;;;3.05;0.70;;;23.30;37.10;;;;;;6227883;28;20056;-86
2022/05/28 10:31:15;;;;;;;4.90;0.80;;;23.20;37.00;;;;;;6227057;28;20073;-86
2022/05/28 10:34:31;;;;;;;2.08;0.40;;;23.20;37.30;;;;;;6246369;28;20050;-87
2022/05/28 10:37:33;;;;;;;2.20;0.45;;;23.30;37.10;;;;;;6231810;28;20041;-85
2022/05/28 10:40:46;;;;;;;4.40;0.98;;;23.60;37.30;;;;;;6228331;28;20505;-85
2022/05/28 10:43:50;;;;;;;4.30;0.68;;;24.10;36.60;;;;;;6214832;28;20524;-86
2022/05/28 10:47:05;;;;;;;2.40;0.73;;;24.40;35.80;;;;;;6221545;28;20057;-85
2022/05/28 10:50:16;;;;;;;8.73;1.40;;;24.60;34.00;;;;;;6232137;28;20045;-85
2022/05/28 10:53:24;;;;;;;3.70;0.57;;;24.60;35.40;;;;;;6232448;28;20070;-85
2022/05/28 10:56:44;;;;;;;2.15;0.40;;;24.90;34.70;;;;;;6232702;28;20050;-85
2022/05/28 11:00:02;;;;;;;3.72;0.65;;;25.00;33.50;;;;;;6231972;28;20045;-85
2022/05/28 11:03:47;;;;;;;4.85;0.70;;;25.10;33.20;;;;;;6230239;28;20042;-84
2022/05/28 11:07:15;;;;;;;4.53;0.80;;;24.90;33.80;;;;;;6237092;28;20050;-84
2022/05/28 11:10:32;;;;;;;4.10;0.55;;;24.70;34.40;;;;;;6232749;28;20053;-84
2022/05/28 11:13:51;;;;;;;5.90;1.15;;;24.60;34.10;;;;;;6227793;28;20053;-85
2022/05/28 11:17:15;;;;;;;3.33;0.70;;;24.50;34.00;;;;;;6219325;28;20045;-85
2022/05/28 11:20:26;;;;;;;6.30;0.57;;;24.50;34.30;;;;;;6227986;28;20046;-83
2022/05/28 11:23:47;;;;;;;2.58;0.40;;;24.50;35.00;;;;;;6228153;28;20141;-85
2022/05/28 11:26:59;;;;;;;4.15;0.63;;;24.50;35.20;;;;;;6228385;28;20046;-84
2022/05/28 11:30:06;;;;;;;2.95;1.10;;;24.30;35.20;;;;;;6228421;28;20655;-84
2022/05/28 11:33:15;;;;;;;3.13;0.57;;;24.20;34.90;;;;;;6227484;28;20400;-84
2022/05/28 11:36:24;;;;;;;1.65;0.45;;;24.10;34.20;;;;;;6227282;28;20566;-83
2022/05/28 11:39:37;;;;;;;5.82;0.80;;;24.20;34.30;;;;;;6226607;28;20489;-84
2022/05/28 11:42:47;;;;;;;9.73;5.38;;;24.50;34.30;;;;;;6227321;28;20177;-84
2022/05/28 11:45:54;;;;;;;7.05;1.10;;;25.00;33.80;;;;;;6224120;28;20144;-87
2022/05/28 11:52:35;;;;;;;3.35;0.98;;;25.80;33.30;;;;;;6222903;28;20517;-87
2022/05/28 11:55:41;;;;;;;5.13;0.60;;;25.70;34.00;;;;;;6225418;28;20062;-87
2022/05/28 11:58:45;;;;;;;2.28;0.50;;;25.40;34.40;;;;;;6227679;28;20042;-87
2022/05/28 12:01:51;;;;;;;7.53;1.95;;;25.00;34.10;;;;;;6228766;28;20124;-86
2022/05/28 12:04:54;;;;;;;5.85;0.55;;;24.60;35.10;;;;;;6228928;28;20077;-86
2022/05/28 12:08:02;;;;;;;4.15;0.55;;;24.80;35.20;;;;;;6227596;28;20041;-86
2022/05/28 12:11:05;;;;;;;;;;;25.00;34.10;;;;;;6228111;28;20041;-87
2022/05/28 12:14:20;;;;;;;3.45;0.70;;;25.10;34.20;;;;;;6227862;28;19927;-87
2022/05/28 12:17:28;;;;;;;9.80;0.77;;;25.20;32.70;;;;;;6227933;28;20056;-86
2022/05/28 12:20:35;;;;;;;5.90;1.08;;;25.50;33.70;;;;;;6227165;28;20050;-87
2022/05/28 12:23:40;;;;;;;4.53;0.90;;;25.40;34.90;;;;;;6227425;28;20675;-87
2022/05/28 12:26:47;;;;;;;4.97;0.95;;;25.40;34.40;;;;;;6227545;28;20146;-86
2022/05/28 12:30:01;;;;;;;4.25;0.60;;;25.10;34.90;;;;;;6228702;28;20042;-87
2022/05/28 12:33:02;;;;;;;6.53;1.02;;;24.90;34.30;;;;;;6227812;28;20053;-87
2022/05/28 12:36:20;;;;;;;3.13;0.40;;;24.80;33.80;;;;;;6228425;28;20056;-87
2022/05/28 12:39:34;;;;;;;5.15;0.80;;;24.70;35.00;;;;;;6229739;28;20180;-84
2022/05/28 12:42:36;;;;;;;1.17;0.40;;;24.50;34.30;;;;;;6230258;28;20056;-85
2022/05/28 12:45:40;;;;;;;2.40;0.57;;;24.30;35.00;;;;;;6232756;28;20053;-85
2022/05/28 12:48:43;;;;;;;2.08;0.32;;;24.50;35.80;;;;;;6232307;28;20038;-85
2022/05/28 12:52:21;;;;;;;4.90;0.70;;;24.50;35.60;;;;;;6233110;28;20049;-85
2022/05/28 12:55:33;;;;;;;4.03;0.60;;;24.40;34.40;;;;;;6225194;28;20038;-85
2022/05/28 12:58:37;;;;;;;3.38;0.70;;;24.30;34.90;;;;;;6230922;28;20133;-84
2022/05/28 13:01:41;;;;;;;5.85;1.27;;;24.20;35.30;;;;;;6234021;28;20520;-84
2022/05/28 13:04:47;;;;;;;3.08;0.45;;;24.20;35.30;;;;;;6235673;28;20104;-84
2022/05/28 13:07:54;;;;;;;4.18;0.50;;;23.90;36.50;;;;;;6233339;28;20535;-84
2022/05/28 13:10:58;;;;;;;2.80;0.68;;;23.80;36.90;;;;;;6236148;28;20505;-84
2022/05/28 13:14:21;;;;;;;9.43;2.05;;;23.90;35.90;;;;;;6234031;28;20136;-84
2022/05/28 13:17:46;;;;;;;2.13;0.40;;;23.90;35.10;;;;;;6234560;28;20306;-83
2022/05/28 13:21:05;;;;;;;2.85;0.40;;;24.30;34.60;;;;;;6233583;28;20057;-84
2022/05/28 13:24:45;;;;;;;2.65;0.50;;;24.60;33.90;;;;;;6234508;28;20116;-84
2022/05/28 13:28:10;;;;;;;2.63;0.93;;;25.30;33.40;;;;;;6234099;28;20054;-82
2022/05/28 13:31:15;;;;;;;3.38;1.00;;;25.90;32.70;;;;;;6217870;28;20041;-84
2022/05/28 13:34:24;;;;;;;4.43;0.63;;;26.40;31.80;;;;;;6236086;28;20494;-84
2022/05/28 13:37:26;;;;;;;3.70;0.55;;;26.80;32.00;;;;;;6208397;28;20053;-84
2022/05/28 13:40:31;;;;;;;3.58;0.40;;;27.10;32.10;;;;;;6206251;28;20106;-84
2022/05/28 13:43:36;;;;;;;3.67;0.45;;;27.30;31.40;;;;;;6207493;28;20058;-85
2022/05/28 13:46:47;;;;;;;3.83;0.32;;;27.40;30.90;;;;;;6177825;28;20046;-86
2022/05/28 13:49:53;;;;;;;2.03;0.35;;;27.40;30.60;;;;;;6219534;28;20082;-84
2022/05/28 13:52:57;;;;;;;3.90;0.30;;;27.40;30.10;;;;;;6209157;28;20046;-84
2022/05/28 13:56:04;;;;;;;3.13;0.30;;;27.30;30.00;;;;;;6213805;28;20069;-85
2022/05/28 13:59:06;;;;;;;1.58;0.20;;;27.60;29.80;;;;;;6230779;28;20060;-83
2022/05/28 14:02:18;;;;;;;9.23;0.50;;;28.00;29.50;;;;;;6229247;28;20113;-82
2022/05/28 14:05:26;;;;;;;1.60;0.35;;;28.10;29.50;;;;;;6232831;28;20089;-85
2022/05/28 14:08:31;;;;;;;3.08;0.35;;;28.10;29.30;;;;;;6232007;28;20050;-85
2022/05/28 14:11:38;;;;;;;2.88;0.30;;;28.00;29.20;;;;;;6232597;28;20180;-85
2022/05/28 14:14:42;;;;;;;4.28;1.20;;;27.90;29.30;;;;;;6232577;28;20060;-85
2022/05/28 14:17:45;;;;;;;0.28;0.10;;;27.70;29.40;;;;;;6237371;28;20417;-84
2022/05/28 14:20:47;;;;;;;6.30;0.60;;;27.60;29.40;;;;;;6230477;28;20133;-84
2022/05/28 14:23:49;;;;;;;2.75;0.90;;;27.30;29.50;;;;;;6231377;28;20536;-84
2022/05/28 14:26:54;;;;;;;2.28;0.43;;;26.70;29.70;;;;;;6232099;28;20458;-84
2022/05/28 14:29:58;;;;;;;2.45;0.40;;;26.30;30.30;;;;;;6232574;28;20464;-84
2022/05/28 14:33:02;;;;;;;2.40;0.60;;;26.00;31.00;;;;;;6233971;28;20060;-83
2022/05/28 14:36:06;;;;;;;1.25;0.40;;;25.70;31.80;;;;;;6231542;28;20129;-85
2022/05/28 14:39:10;;;;;;;4.03;0.55;;;25.30;31.90;;;;;;6232604;28;20068;-84
2022/05/28 14:42:22;;;;;;;3.60;0.35;;;25.10;31.70;;;;;;6235130;28;20049;-84
2022/05/28 14:45:26;;;;;;;2.38;0.60;;;25.10;32.20;;;;;;6231629;28;20042;-84
2022/05/28 14:48:30;;;;;;;1.85;0.43;;;25.00;32.10;;;;;;6230908;28;20517;-85
2022/05/28 14:51:38;;;;;;;5.43;0.43;;;25.00;32.10;;;;;;6230624;28;20046;-84
2022/05/28 14:54:51;;;;;;;1.13;0.40;;;24.90;31.90;;;;;;6231339;28;20069;-85
2022/05/28 14:58:03;;;;;;;3.55;0.43;;;24.80;32.20;;;;;;6231760;28;20058;-85
2022/05/28 15:01:08;;;;;;;2.88;1.02;;;24.80;32.60;;;;;;6230373;28;20042;-85
2022/05/28 15:09:01;;;;;;;1.58;0.22;;;24.90;32.50;;;;;;6232480;28;20042;-85
2022/05/28 15:12:33;;;;;;;3.03;0.60;;;24.80;32.60;;;;;;6201199;28;20445;-85
2022/05/28 15:15:37;;;;;;;3.40;0.82;;;24.60;33.10;;;;;;6204819;28;20046;-82
2022/05/28 15:18:40;;;;;;;4.47;0.90;;;24.60;33.20;;;;;;6231328;28;20042;-84
2022/05/28 15:21:42;;;;;;;6.15;3.88;;;24.70;32.90;;;;;;6230038;28;20064;-84
2022/05/28 15:24:45;;;;;;;0.95;0.50;;;24.80;32.60;;;;;;6229201;28;20073;-85
2022/05/28 15:27:53;;;;;;;4.20;0.88;;;25.00;32.50;;;;;;6229613;28;20127;-85
2022/05/28 15:31:01;;;;;;;5.82;1.65;;;25.20;32.30;;;;;;6229249;28;20486;-84
2022/05/28 15:34:03;;;;;;;2.03;0.50;;;25.50;32.30;;;;;;6230591;28;20049;-85
2022/05/28 15:40:28;;;;;;;1.00;0.43;;;26.10;31.90;;;;;;6228991;28;20509;-84
2022/05/28 15:43:30;;;;;;;5.60;1.02;;;26.50;31.20;;;;;;6229553;28;20485;-84
2022/05/28 15:46:35;;;;;;;2.22;0.32;;;26.60;30.50;;;;;;6228961;28;20057;-84
2022/05/28 15:49:37;;;;;;;3.30;0.90;;;26.60;30.30;;;;;;6233237;28;20057;-83
2022/05/28 15:52:39;;;;;;;2.60;0.30;;;26.50;30.80;;;;;;6218111;28;20042;-84
2022/05/28 15:55:46;;;;;;;2.67;0.50;;;26.40;31.00;;;;;;6229686;28;20085;-86
2022/05/28 15:58:48;;;;;;;1.23;0.20;;;26.20;30.30;;;;;;6224543;28;20046;-84
2022/05/28 16:01:52;;;;;;;1.13;0.40;;;25.90;30.30;;;;;;6226218;28;20046;-85
2022/05/28 16:05:21;;;;;;;2.83;0.88;;;25.50;30.30;;;;;;6231596;28;20050;-85
2022/05/28 16:09:33;;;;;;;;;;;;;;;;;;;;;
2022/05/28 16:15:51;;;;;;;6.00;0.55;;;24.80;32.00;;;;;;6222635;28;20077;-83
2022/05/28 17:01:27;;;;;;;1.15;0.50;;;23.70;35.20;;;;;;6123533;29;20135;-84
2022/05/28 17:08:08;;;;;;;0.75;0.22;;;23.30;35.80;;;;;;6114925;29;20052;-81
2022/05/28 17:11:13;;;;;;;1.42;0.28;;;23.20;35.90;;;;;;6106223;29;20052;-82
2022/05/28 17:14:25;;;;;;;5.43;1.30;;;23.10;35.50;;;;;;6114088;29;20060;-83
2022/05/28 17:17:32;;;;;;;2.55;0.30;;;22.90;34.90;;;;;;6095946;29;20155;-84
2022/05/28 17:20:47;;;;;;;2.45;0.63;;;22.80;34.40;;;;;;6113559;29;20054;-85
2022/05/28 17:23:50;;;;;;;3.25;0.65;;;22.50;34.90;;;;;;6104032;29;20068;-81
2022/05/28 17:30:13;;;;;;;2.63;0.40;;;22.00;35.80;;;;;;6109794;29;20052;-83